DLH1849 LEAL-EDDM
Flight info
| Callsign | DLH1849 |
|---|---|
| Flight time | N/A |
| Altitude | 38000 |
| Route | MITOS N851 PTC DCT CDP DCT CHELY DCT LUMAS DCT UNANA DCT STP DCT RAPED DCT PIGOS DCT EKSID DCT NOSTA DCT NOPMU DCT TAGIP DCT GUNGO DCT IVKAL T102 NINUR T101 BETOS BETOS1A |
| Aircraft | A20N/M-SDE2E3FGHIRWXY/LB1 |
Departure
| Time | 2026-05-04 16:26 |
|---|---|
| Airport | Alicante-Elche Miguel Hernández Airport (LEAL) |
Arrival
| Time | N/A |
|---|---|
| Airport | Munich Airport (EDDM) |
| Time | Latitude | Longitude | Altitude | Speed | Heading |
|---|---|---|---|---|---|
| 2026-05-04 16:01 | 38.28646 | -0.55030 | 86 ft | 0 kts | 280° |
| 2026-05-04 16:12 | 38.28644 | -0.55015 | 88 ft | 1 kts | 280° |
| 2026-05-04 16:12 | 38.28638 | -0.54963 | 85 ft | 2 kts | 260° |
| 2026-05-04 16:13 | 38.28649 | -0.54941 | 86 ft | 0 kts | 193° |
| 2026-05-04 16:18 | 38.28566 | -0.54961 | 87 ft | 14 kts | 191° |
| 2026-05-04 16:18 | 38.28463 | -0.54982 | 83 ft | 15 kts | 189° |
| 2026-05-04 16:19 | 38.28366 | -0.55196 | 87 ft | 15 kts | 234° |
| 2026-05-04 16:19 | 38.28342 | -0.55435 | 93 ft | 14 kts | 280° |
| 2026-05-04 16:20 | 38.28399 | -0.55856 | 106 ft | 20 kts | 279° |
| 2026-05-04 16:20 | 38.28452 | -0.56225 | 111 ft | 23 kts | 279° |
| 2026-05-04 16:21 | 38.28542 | -0.56860 | 128 ft | 23 kts | 278° |
| 2026-05-04 16:22 | 38.28591 | -0.57211 | 145 ft | 17 kts | 281° |
| 2026-05-04 16:22 | 38.28548 | -0.57431 | 154 ft | 0 kts | 187° |
| 2026-05-04 16:23 | 38.28546 | -0.57432 | 154 ft | 1 kts | 188° |
| 2026-05-04 16:24 | 38.28531 | -0.57434 | 155 ft | 6 kts | 188° |
| 2026-05-04 16:25 | 38.28439 | -0.57409 | 153 ft | 14 kts | 117° |
| 2026-05-04 16:26 | 38.28384 | -0.57026 | 136 ft | 81 kts | 101° |
| 2026-05-04 16:26 | 38.27838 | -0.52764 | 1249 ft | 211 kts | 101° |
| 2026-05-04 16:27 | 38.27723 | -0.48747 | 2709 ft | 249 kts | 70° |
| 2026-05-04 16:28 | 38.30607 | -0.42606 | 5248 ft | 280 kts | 55° |
| 2026-05-04 16:28 | 38.33564 | -0.35919 | 7942 ft | 301 kts | 65° |
| 2026-05-04 16:29 | 38.36868 | -0.25641 | 9910 ft | 319 kts | 67° |
| 2026-05-04 16:30 | 38.39504 | -0.17759 | 9917 ft | 345 kts | 67° |
| 2026-05-04 16:31 | 38.41461 | -0.11892 | 9906 ft | 356 kts | 67° |
| 2026-05-04 16:31 | 38.44146 | -0.03801 | 9912 ft | 319 kts | 67° |
| 2026-05-04 16:32 | 38.46982 | 0.04906 | 11319 ft | 372 kts | 68° |
| 2026-05-04 16:33 | 38.48968 | 0.11109 | 12916 ft | 383 kts | 68° |
| 2026-05-04 16:33 | 38.51011 | 0.17489 | 14422 ft | 393 kts | 68° |
| 2026-05-04 16:34 | 38.53104 | 0.24029 | 15838 ft | 402 kts | 68° |
| 2026-05-04 16:34 | 38.54166 | 0.27354 | 16536 ft | 407 kts | 68° |
| 2026-05-04 16:35 | 38.57414 | 0.37550 | 18529 ft | 421 kts | 69° |
| 2026-05-04 16:35 | 38.60768 | 0.48114 | 20276 ft | 434 kts | 69° |
| 2026-05-04 16:36 | 38.61566 | 0.50633 | 20681 ft | 437 kts | 69° |
| 2026-05-04 16:36 | 38.63868 | 0.57918 | 21817 ft | 445 kts | 69° |
| 2026-05-04 16:37 | 38.66206 | 0.65333 | 22923 ft | 454 kts | 69° |
| 2026-05-04 16:37 | 38.67391 | 0.69101 | 23483 ft | 458 kts | 69° |
| 2026-05-04 16:37 | 38.69783 | 0.76722 | 24427 ft | 464 kts | 69° |
| 2026-05-04 16:38 | 38.72183 | 0.84385 | 25342 ft | 470 kts | 69° |
| 2026-05-04 16:39 | 38.75381 | 0.94629 | 26479 ft | 479 kts | 69° |
| 2026-05-04 16:39 | 38.77861 | 1.02599 | 27343 ft | 484 kts | 69° |
| 2026-05-04 16:40 | 38.80362 | 1.10664 | 28147 ft | 490 kts | 69° |
| 2026-05-04 16:40 | 38.82884 | 1.18816 | 28907 ft | 494 kts | 69° |
| 2026-05-04 16:41 | 38.84145 | 1.22901 | 29272 ft | 497 kts | 69° |
| 2026-05-04 16:41 | 38.84389 | 1.23694 | 29342 ft | 497 kts | 69° |
| 2026-05-04 16:42 | 38.88225 | 1.36165 | 30382 ft | 504 kts | 69° |
| 2026-05-04 16:43 | 38.90802 | 1.44576 | 31012 ft | 508 kts | 69° |
| 2026-05-04 16:43 | 38.93332 | 1.52964 | 31803 ft | 507 kts | 69° |
| 2026-05-04 16:43 | 38.94578 | 1.57206 | 32195 ft | 506 kts | 69° |
| 2026-05-04 16:44 | 38.99530 | 1.74090 | 33740 ft | 503 kts | 69° |
| 2026-05-04 16:45 | 39.01991 | 1.82497 | 34393 ft | 501 kts | 69° |
| 2026-05-04 16:46 | 39.05660 | 1.95074 | 35227 ft | 500 kts | 69° |
| 2026-05-04 16:46 | 39.08090 | 2.03440 | 35777 ft | 499 kts | 69° |
| 2026-05-04 16:47 | 39.10515 | 2.11810 | 36279 ft | 498 kts | 69° |
| 2026-05-04 16:47 | 39.12911 | 2.20110 | 36781 ft | 497 kts | 69° |
| 2026-05-04 16:48 | 39.16511 | 2.32627 | 37453 ft | 496 kts | 69° |
| 2026-05-04 16:48 | 39.17708 | 2.36803 | 37653 ft | 496 kts | 69° |
| 2026-05-04 16:49 | 39.20094 | 2.45140 | 37939 ft | 496 kts | 69° |
| 2026-05-04 16:49 | 39.22466 | 2.53460 | 37949 ft | 493 kts | 69° |
| 2026-05-04 16:50 | 39.27182 | 2.70077 | 37952 ft | 493 kts | 70° |
| 2026-05-04 16:51 | 39.30699 | 2.82545 | 37959 ft | 492 kts | 70° |
| 2026-05-04 16:52 | 39.35357 | 2.99146 | 37940 ft | 491 kts | 70° |
| 2026-05-04 16:53 | 39.38827 | 3.11582 | 37933 ft | 490 kts | 70° |
| 2026-05-04 16:53 | 39.43092 | 3.23405 | 37925 ft | 485 kts | 49° |
| 2026-05-04 16:54 | 39.45398 | 3.26566 | 37918 ft | 481 kts | 38° |